sensor_id;sensor_type;location;lat;lon;timestamp;P1;durP1;ratioP1;P2;durP2;ratioP2
817;SDS011;391;51.052;6.954;2023-10-31T00:01:51;2.77;;;2.67;;
817;SDS011;391;51.052;6.954;2023-10-31T00:03:54;3.37;;;3.17;;
817;SDS011;391;51.052;6.954;2023-10-31T00:05:58;3.23;;;3.03;;
817;SDS011;391;51.052;6.954;2023-10-31T00:08:00;3.20;;;3.00;;
817;SDS011;391;51.052;6.954;2023-10-31T00:10:04;3.23;;;3.10;;
817;SDS011;391;51.052;6.954;2023-10-31T00:12:08;3.50;;;3.30;;
817;SDS011;391;51.052;6.954;2023-10-31T00:14:11;3.47;;;3.27;;
817;SDS011;391;51.052;6.954;2023-10-31T00:16:32;3.70;;;3.50;;
817;SDS011;391;51.052;6.954;2023-10-31T00:18:35;3.83;;;3.63;;
817;SDS011;391;51.052;6.954;2023-10-31T00:20:39;3.90;;;3.70;;
817;SDS011;391;51.052;6.954;2023-10-31T00:22:42;3.70;;;3.50;;
817;SDS011;391;51.052;6.954;2023-10-31T00:24:45;3.30;;;3.20;;
817;SDS011;391;51.052;6.954;2023-10-31T00:26:49;3.47;;;3.27;;
817;SDS011;391;51.052;6.954;2023-10-31T00:28:54;3.53;;;3.33;;
817;SDS011;391;51.052;6.954;2023-10-31T00:30:57;3.33;;;3.13;;
817;SDS011;391;51.052;6.954;2023-10-31T00:33:02;3.20;;;3.10;;
817;SDS011;391;51.052;6.954;2023-10-31T00:35:06;2.90;;;2.80;;
817;SDS011;391;51.052;6.954;2023-10-31T00:37:10;3.40;;;3.20;;
817;SDS011;391;51.052;6.954;2023-10-31T00:39:14;4.00;;;3.70;;
817;SDS011;391;51.052;6.954;2023-10-31T00:41:17;3.40;;;3.20;;
817;SDS011;391;51.052;6.954;2023-10-31T00:43:21;3.00;;;2.90;;
817;SDS011;391;51.052;6.954;2023-10-31T00:45:26;3.87;;;3.67;;
817;SDS011;391;51.052;6.954;2023-10-31T00:47:29;3.90;;;3.70;;
817;SDS011;391;51.052;6.954;2023-10-31T00:49:32;3.67;;;3.47;;
817;SDS011;391;51.052;6.954;2023-10-31T00:51:37;4.60;;;4.40;;
817;SDS011;391;51.052;6.954;2023-10-31T00:53:41;4.50;;;4.20;;
817;SDS011;391;51.052;6.954;2023-10-31T00:55:44;4.30;;;4.00;;
817;SDS011;391;51.052;6.954;2023-10-31T00:57:48;4.13;;;3.93;;
817;SDS011;391;51.052;6.954;2023-10-31T00:59:51;4.00;;;3.80;;
817;SDS011;391;51.052;6.954;2023-10-31T01:01:56;4.47;;;4.20;;
817;SDS011;391;51.052;6.954;2023-10-31T01:03:59;6.07;;;4.17;;
817;SDS011;391;51.052;6.954;2023-10-31T01:06:03;5.23;;;4.83;;
817;SDS011;391;51.052;6.954;2023-10-31T01:08:07;4.10;;;3.80;;
817;SDS011;391;51.052;6.954;2023-10-31T01:10:10;3.93;;;3.73;;
817;SDS011;391;51.052;6.954;2023-10-31T01:12:14;4.60;;;4.40;;
817;SDS011;391;51.052;6.954;2023-10-31T01:14:17;3.97;;;3.67;;
817;SDS011;391;51.052;6.954;2023-10-31T01:16:21;3.40;;;3.20;;
817;SDS011;391;51.052;6.954;2023-10-31T01:18:26;3.57;;;3.37;;
817;SDS011;391;51.052;6.954;2023-10-31T01:20:29;5.03;;;3.60;;
817;SDS011;391;51.052;6.954;2023-10-31T01:22:32;3.13;;;2.93;;
817;SDS011;391;51.052;6.954;2023-10-31T01:24:36;3.63;;;3.37;;
817;SDS011;391;51.052;6.954;2023-10-31T01:26:39;3.50;;;3.30;;
817;SDS011;391;51.052;6.954;2023-10-31T01:28:43;3.50;;;3.20;;
817;SDS011;391;51.052;6.954;2023-10-31T01:30:46;4.33;;;3.20;;
817;SDS011;391;51.052;6.954;2023-10-31T01:32:50;4.40;;;3.43;;
817;SDS011;391;51.052;6.954;2023-10-31T01:34:55;3.50;;;3.20;;
817;SDS011;391;51.052;6.954;2023-10-31T01:36:59;4.50;;;4.20;;
817;SDS011;391;51.052;6.954;2023-10-31T01:39:03;3.30;;;3.00;;
817;SDS011;391;51.052;6.954;2023-10-31T01:41:07;4.57;;;4.17;;
817;SDS011;391;51.052;6.954;2023-10-31T01:43:11;4.17;;;3.73;;
817;SDS011;391;51.052;6.954;2023-10-31T01:45:14;3.80;;;3.50;;
817;SDS011;391;51.052;6.954;2023-10-31T01:47:17;4.07;;;3.60;;
817;SDS011;391;51.052;6.954;2023-10-31T01:49:21;3.80;;;3.60;;
817;SDS011;391;51.052;6.954;2023-10-31T01:51:26;3.33;;;3.13;;
817;SDS011;391;51.052;6.954;2023-10-31T01:53:31;5.40;;;3.60;;
817;SDS011;391;51.052;6.954;2023-10-31T01:55:35;3.27;;;3.07;;
817;SDS011;391;51.052;6.954;2023-10-31T01:57:39;3.33;;;3.00;;
817;SDS011;391;51.052;6.954;2023-10-31T01:59:42;6.20;;;4.33;;
817;SDS011;391;51.052;6.954;2023-10-31T02:01:45;3.50;;;3.20;;
817;SDS011;391;51.052;6.954;2023-10-31T02:03:49;4.20;;;3.73;;
817;SDS011;391;51.052;6.954;2023-10-31T02:05:53;4.20;;;3.90;;
817;SDS011;391;51.052;6.954;2023-10-31T02:07:58;4.90;;;4.43;;
817;SDS011;391;51.052;6.954;2023-10-31T02:10:01;4.10;;;3.70;;
817;SDS011;391;51.052;6.954;2023-10-31T02:12:04;4.47;;;4.00;;
817;SDS011;391;51.052;6.954;2023-10-31T02:14:08;4.20;;;3.90;;
817;SDS011;391;51.052;6.954;2023-10-31T02:16:12;3.83;;;3.60;;
817;SDS011;391;51.052;6.954;2023-10-31T02:18:15;4.03;;;3.83;;
817;SDS011;391;51.052;6.954;2023-10-31T02:20:18;3.97;;;3.67;;
817;SDS011;391;51.052;6.954;2023-10-31T02:22:23;6.10;;;4.23;;
817;SDS011;391;51.052;6.954;2023-10-31T02:24:26;3.23;;;3.03;;
817;SDS011;391;51.052;6.954;2023-10-31T02:26:30;3.93;;;3.37;;
817;SDS011;391;51.052;6.954;2023-10-31T02:28:34;5.13;;;4.30;;
817;SDS011;391;51.052;6.954;2023-10-31T02:30:36;4.13;;;3.73;;
817;SDS011;391;51.052;6.954;2023-10-31T02:32:40;4.37;;;3.63;;
817;SDS011;391;51.052;6.954;2023-10-31T02:34:44;4.07;;;3.50;;
817;SDS011;391;51.052;6.954;2023-10-31T02:36:47;4.10;;;3.80;;
817;SDS011;391;51.052;6.954;2023-10-31T02:38:53;3.97;;;3.40;;
817;SDS011;391;51.052;6.954;2023-10-31T02:40:55;4.57;;;3.90;;
817;SDS011;391;51.052;6.954;2023-10-31T02:42:59;3.53;;;3.30;;
817;SDS011;391;51.052;6.954;2023-10-31T02:45:04;4.43;;;3.40;;
817;SDS011;391;51.052;6.954;2023-10-31T02:47:08;4.17;;;3.23;;
817;SDS011;391;51.052;6.954;2023-10-31T02:49:11;3.70;;;3.40;;
817;SDS011;391;51.052;6.954;2023-10-31T02:51:15;3.90;;;3.47;;
817;SDS011;391;51.052;6.954;2023-10-31T02:53:19;4.20;;;3.93;;
817;SDS011;391;51.052;6.954;2023-10-31T02:55:23;3.03;;;2.80;;
817;SDS011;391;51.052;6.954;2023-10-31T02:57:27;3.90;;;3.60;;
817;SDS011;391;51.052;6.954;2023-10-31T02:59:30;4.47;;;3.80;;
817;SDS011;391;51.052;6.954;2023-10-31T03:01:34;3.63;;;3.43;;
817;SDS011;391;51.052;6.954;2023-10-31T03:03:38;4.07;;;3.27;;
817;SDS011;391;51.052;6.954;2023-10-31T03:05:41;3.43;;;3.30;;
817;SDS011;391;51.052;6.954;2023-10-31T03:07:45;6.47;;;4.00;;
817;SDS011;391;51.052;6.954;2023-10-31T03:09:48;4.00;;;3.70;;
817;SDS011;391;51.052;6.954;2023-10-31T03:11:55;3.90;;;3.60;;
817;SDS011;391;51.052;6.954;2023-10-31T03:13:58;5.13;;;3.80;;
817;SDS011;391;51.052;6.954;2023-10-31T03:16:02;3.97;;;3.60;;
817;SDS011;391;51.052;6.954;2023-10-31T03:18:06;4.40;;;4.03;;
817;SDS011;391;51.052;6.954;2023-10-31T03:20:10;4.73;;;4.43;;
817;SDS011;391;51.052;6.954;2023-10-31T03:22:14;4.03;;;3.20;;
817;SDS011;391;51.052;6.954;2023-10-31T03:24:17;3.43;;;3.13;;
817;SDS011;391;51.052;6.954;2023-10-31T03:26:20;4.40;;;4.00;;
817;SDS011;391;51.052;6.954;2023-10-31T03:28:26;3.70;;;3.40;;
817;SDS011;391;51.052;6.954;2023-10-31T03:30:29;4.07;;;3.63;;
817;SDS011;391;51.052;6.954;2023-10-31T03:32:33;3.57;;;3.27;;
817;SDS011;391;51.052;6.954;2023-10-31T03:34:37;3.30;;;3.13;;
817;SDS011;391;51.052;6.954;2023-10-31T03:36:41;6.17;;;3.87;;
817;SDS011;391;51.052;6.954;2023-10-31T03:38:43;3.83;;;3.53;;
817;SDS011;391;51.052;6.954;2023-10-31T03:40:47;4.93;;;3.50;;
817;SDS011;391;51.052;6.954;2023-10-31T03:42:51;4.47;;;3.77;;
817;SDS011;391;51.052;6.954;2023-10-31T03:44:55;4.07;;;3.77;;
817;SDS011;391;51.052;6.954;2023-10-31T03:46:58;6.90;;;3.40;;
817;SDS011;391;51.052;6.954;2023-10-31T03:49:03;3.33;;;3.13;;
817;SDS011;391;51.052;6.954;2023-10-31T03:51:06;6.20;;;3.67;;
817;SDS011;391;51.052;6.954;2023-10-31T03:53:09;6.43;;;3.63;;
817;SDS011;391;51.052;6.954;2023-10-31T03:55:13;4.27;;;3.60;;
817;SDS011;391;51.052;6.954;2023-10-31T03:57:17;3.10;;;2.90;;
817;SDS011;391;51.052;6.954;2023-10-31T03:59:20;3.87;;;3.57;;
817;SDS011;391;51.052;6.954;2023-10-31T04:01:25;4.03;;;3.37;;
817;SDS011;391;51.052;6.954;2023-10-31T04:03:28;3.50;;;3.07;;
817;SDS011;391;51.052;6.954;2023-10-31T04:05:31;3.47;;;3.13;;
817;SDS011;391;51.052;6.954;2023-10-31T04:07:35;3.50;;;3.30;;
817;SDS011;391;51.052;6.954;2023-10-31T04:09:37;3.63;;;3.30;;
817;SDS011;391;51.052;6.954;2023-10-31T04:11:40;14.67;;;3.40;;
817;SDS011;391;51.052;6.954;2023-10-31T04:13:45;4.40;;;4.00;;
817;SDS011;391;51.052;6.954;2023-10-31T04:15:52;5.47;;;2.93;;
817;SDS011;391;51.052;6.954;2023-10-31T04:17:56;3.47;;;3.17;;
817;SDS011;391;51.052;6.954;2023-10-31T04:20:04;3.20;;;2.90;;
817;SDS011;391;51.052;6.954;2023-10-31T04:22:10;3.43;;;3.13;;
817;SDS011;391;51.052;6.954;2023-10-31T04:24:13;2.70;;;2.50;;
817;SDS011;391;51.052;6.954;2023-10-31T04:26:19;5.40;;;2.90;;
817;SDS011;391;51.052;6.954;2023-10-31T04:28:22;3.10;;;2.80;;
817;SDS011;391;51.052;6.954;2023-10-31T04:30:26;2.97;;;2.77;;
817;SDS011;391;51.052;6.954;2023-10-31T04:32:29;3.30;;;3.10;;
817;SDS011;391;51.052;6.954;2023-10-31T04:34:34;3.07;;;2.90;;
817;SDS011;391;51.052;6.954;2023-10-31T04:36:38;3.43;;;3.00;;
817;SDS011;391;51.052;6.954;2023-10-31T04:38:42;2.77;;;2.67;;
817;SDS011;391;51.052;6.954;2023-10-31T04:40:45;3.10;;;2.80;;
817;SDS011;391;51.052;6.954;2023-10-31T04:42:48;3.40;;;3.10;;
817;SDS011;391;51.052;6.954;2023-10-31T04:44:52;3.40;;;2.90;;
817;SDS011;391;51.052;6.954;2023-10-31T04:46:55;3.23;;;3.03;;
817;SDS011;391;51.052;6.954;2023-10-31T04:49:00;3.67;;;3.43;;
817;SDS011;391;51.052;6.954;2023-10-31T04:51:06;3.50;;;3.30;;
817;SDS011;391;51.052;6.954;2023-10-31T04:53:09;5.10;;;3.60;;
817;SDS011;391;51.052;6.954;2023-10-31T04:55:13;3.57;;;3.37;;
817;SDS011;391;51.052;6.954;2023-10-31T04:57:19;4.20;;;3.80;;
817;SDS011;391;51.052;6.954;2023-10-31T04:59:22;3.63;;;3.43;;
817;SDS011;391;51.052;6.954;2023-10-31T05:01:26;3.60;;;3.40;;
817;SDS011;391;51.052;6.954;2023-10-31T05:03:28;3.80;;;3.60;;
817;SDS011;391;51.052;6.954;2023-10-31T05:05:32;4.40;;;4.10;;
817;SDS011;391;51.052;6.954;2023-10-31T05:07:37;4.00;;;3.80;;
817;SDS011;391;51.052;6.954;2023-10-31T05:09:40;4.47;;;4.27;;
817;SDS011;391;51.052;6.954;2023-10-31T05:11:48;5.03;;;4.70;;
817;SDS011;391;51.052;6.954;2023-10-31T05:13:51;4.80;;;4.40;;
817;SDS011;391;51.052;6.954;2023-10-31T05:15:55;5.30;;;4.97;;
817;SDS011;391;51.052;6.954;2023-10-31T05:17:58;4.73;;;4.30;;
817;SDS011;391;51.052;6.954;2023-10-31T05:20:02;7.23;;;4.50;;
817;SDS011;391;51.052;6.954;2023-10-31T05:22:06;5.27;;;4.73;;
817;SDS011;391;51.052;6.954;2023-10-31T05:24:11;4.43;;;4.10;;
817;SDS011;391;51.052;6.954;2023-10-31T05:26:13;4.80;;;4.60;;
817;SDS011;391;51.052;6.954;2023-10-31T05:28:17;4.23;;;4.03;;
817;SDS011;391;51.052;6.954;2023-10-31T05:30:20;4.20;;;3.90;;
817;SDS011;391;51.052;6.954;2023-10-31T05:32:24;4.43;;;4.20;;
817;SDS011;391;51.052;6.954;2023-10-31T05:34:27;4.40;;;4.20;;
817;SDS011;391;51.052;6.954;2023-10-31T05:36:31;4.30;;;4.10;;
817;SDS011;391;51.052;6.954;2023-10-31T05:38:34;4.50;;;4.20;;
817;SDS011;391;51.052;6.954;2023-10-31T05:40:38;4.93;;;4.50;;
817;SDS011;391;51.052;6.954;2023-10-31T05:42:42;5.20;;;4.80;;
817;SDS011;391;51.052;6.954;2023-10-31T05:44:48;4.83;;;4.53;;
817;SDS011;391;51.052;6.954;2023-10-31T05:46:51;4.40;;;4.20;;
817;SDS011;391;51.052;6.954;2023-10-31T05:48:55;4.33;;;4.13;;
817;SDS011;391;51.052;6.954;2023-10-31T05:50:58;4.70;;;4.40;;
817;SDS011;391;51.052;6.954;2023-10-31T05:53:01;4.90;;;4.60;;
817;SDS011;391;51.052;6.954;2023-10-31T05:55:05;4.30;;;4.10;;
817;SDS011;391;51.052;6.954;2023-10-31T05:57:10;4.60;;;4.30;;
817;SDS011;391;51.052;6.954;2023-10-31T05:59:14;4.37;;;4.10;;
817;SDS011;391;51.052;6.954;2023-10-31T06:01:17;5.27;;;4.97;;
817;SDS011;391;51.052;6.954;2023-10-31T06:03:21;4.73;;;4.43;;
817;SDS011;391;51.052;6.954;2023-10-31T06:05:23;5.37;;;4.97;;
817;SDS011;391;51.052;6.954;2023-10-31T06:07:27;4.37;;;4.17;;
817;SDS011;391;51.052;6.954;2023-10-31T06:09:29;5.33;;;5.03;;
817;SDS011;391;51.052;6.954;2023-10-31T06:11:35;5.10;;;4.70;;
817;SDS011;391;51.052;6.954;2023-10-31T06:13:39;4.93;;;4.67;;
817;SDS011;391;51.052;6.954;2023-10-31T06:15:42;5.80;;;5.50;;
817;SDS011;391;51.052;6.954;2023-10-31T06:17:46;5.23;;;4.80;;
817;SDS011;391;51.052;6.954;2023-10-31T06:19:49;4.73;;;4.43;;
817;SDS011;391;51.052;6.954;2023-10-31T06:21:53;5.07;;;4.77;;
817;SDS011;391;51.052;6.954;2023-10-31T06:23:56;5.37;;;4.97;;
817;SDS011;391;51.052;6.954;2023-10-31T06:26:00;5.00;;;4.60;;
817;SDS011;391;51.052;6.954;2023-10-31T06:28:03;4.47;;;4.23;;
817;SDS011;391;51.052;6.954;2023-10-31T06:30:09;5.17;;;4.87;;
817;SDS011;391;51.052;6.954;2023-10-31T06:32:27;5.13;;;4.83;;
817;SDS011;391;51.052;6.954;2023-10-31T06:34:31;5.00;;;4.70;;
817;SDS011;391;51.052;6.954;2023-10-31T06:36:34;5.50;;;5.20;;
817;SDS011;391;51.052;6.954;2023-10-31T06:38:38;5.00;;;4.70;;
817;SDS011;391;51.052;6.954;2023-10-31T06:40:40;5.90;;;5.50;;
817;SDS011;391;51.052;6.954;2023-10-31T06:42:44;5.10;;;4.80;;
817;SDS011;391;51.052;6.954;2023-10-31T06:44:47;5.73;;;5.43;;
817;SDS011;391;51.052;6.954;2023-10-31T06:46:52;5.70;;;5.30;;
817;SDS011;391;51.052;6.954;2023-10-31T06:48:56;6.27;;;5.80;;
817;SDS011;391;51.052;6.954;2023-10-31T06:51:00;4.93;;;4.63;;
817;SDS011;391;51.052;6.954;2023-10-31T06:53:03;6.17;;;5.77;;
817;SDS011;391;51.052;6.954;2023-10-31T06:55:07;6.07;;;5.50;;
817;SDS011;391;51.052;6.954;2023-10-31T06:57:11;6.10;;;5.60;;
817;SDS011;391;51.052;6.954;2023-10-31T06:59:14;5.20;;;4.93;;
817;SDS011;391;51.052;6.954;2023-10-31T07:01:18;5.93;;;5.63;;
817;SDS011;391;51.052;6.954;2023-10-31T07:03:23;6.20;;;5.80;;
817;SDS011;391;51.052;6.954;2023-10-31T07:05:27;6.63;;;6.20;;
817;SDS011;391;51.052;6.954;2023-10-31T07:07:31;6.33;;;5.83;;
817;SDS011;391;51.052;6.954;2023-10-31T07:09:35;6.30;;;5.90;;
817;SDS011;391;51.052;6.954;2023-10-31T07:11:38;7.13;;;6.60;;
817;SDS011;391;51.052;6.954;2023-10-31T07:13:42;7.13;;;6.63;;
817;SDS011;391;51.052;6.954;2023-10-31T07:15:46;7.60;;;7.00;;
817;SDS011;391;51.052;6.954;2023-10-31T07:17:50;6.87;;;6.37;;
817;SDS011;391;51.052;6.954;2023-10-31T07:19:54;7.27;;;6.77;;
817;SDS011;391;51.052;6.954;2023-10-31T07:21:57;6.90;;;6.40;;
817;SDS011;391;51.052;6.954;2023-10-31T07:24:00;8.33;;;7.63;;
817;SDS011;391;51.052;6.954;2023-10-31T07:26:04;9.37;;;8.47;;
817;SDS011;391;51.052;6.954;2023-10-31T07:28:08;8.73;;;8.03;;
817;SDS011;391;51.052;6.954;2023-10-31T07:30:12;8.63;;;7.93;;
817;SDS011;391;51.052;6.954;2023-10-31T07:32:16;8.60;;;7.97;;
817;SDS011;391;51.052;6.954;2023-10-31T07:34:20;9.10;;;8.30;;
817;SDS011;391;51.052;6.954;2023-10-31T07:36:25;9.43;;;8.63;;
817;SDS011;391;51.052;6.954;2023-10-31T07:38:28;8.87;;;8.07;;
817;SDS011;391;51.052;6.954;2023-10-31T07:40:32;7.37;;;6.77;;
817;SDS011;391;51.052;6.954;2023-10-31T07:42:35;7.00;;;6.50;;
817;SDS011;391;51.052;6.954;2023-10-31T07:44:39;7.40;;;6.80;;
817;SDS011;391;51.052;6.954;2023-10-31T07:46:41;7.70;;;7.00;;
817;SDS011;391;51.052;6.954;2023-10-31T07:48:45;7.60;;;7.00;;
817;SDS011;391;51.052;6.954;2023-10-31T07:50:48;7.20;;;6.47;;
817;SDS011;391;51.052;6.954;2023-10-31T07:52:53;9.40;;;8.43;;
817;SDS011;391;51.052;6.954;2023-10-31T07:54:57;6.93;;;6.30;;
817;SDS011;391;51.052;6.954;2023-10-31T07:57:00;6.80;;;6.30;;
817;SDS011;391;51.052;6.954;2023-10-31T07:59:04;6.67;;;6.10;;
817;SDS011;391;51.052;6.954;2023-10-31T08:01:08;6.40;;;5.90;;
817;SDS011;391;51.052;6.954;2023-10-31T08:03:12;6.60;;;5.93;;
817;SDS011;391;51.052;6.954;2023-10-31T08:05:16;6.87;;;6.23;;
817;SDS011;391;51.052;6.954;2023-10-31T08:07:20;7.00;;;6.30;;
817;SDS011;391;51.052;6.954;2023-10-31T08:09:27;7.20;;;6.60;;
817;SDS011;391;51.052;6.954;2023-10-31T08:11:30;6.60;;;6.20;;
817;SDS011;391;51.052;6.954;2023-10-31T08:13:34;5.83;;;5.33;;
817;SDS011;391;51.052;6.954;2023-10-31T08:15:38;5.30;;;5.00;;
817;SDS011;391;51.052;6.954;2023-10-31T08:17:42;5.90;;;5.60;;
817;SDS011;391;51.052;6.954;2023-10-31T08:19:45;9.43;;;6.37;;
817;SDS011;391;51.052;6.954;2023-10-31T08:21:49;7.03;;;5.43;;
817;SDS011;391;51.052;6.954;2023-10-31T08:23:52;7.73;;;5.90;;
817;SDS011;391;51.052;6.954;2023-10-31T08:25:57;6.67;;;5.97;;
817;SDS011;391;51.052;6.954;2023-10-31T08:28:00;5.83;;;5.43;;
817;SDS011;391;51.052;6.954;2023-10-31T08:30:04;5.60;;;5.30;;
817;SDS011;391;51.052;6.954;2023-10-31T08:32:09;5.40;;;5.10;;
817;SDS011;391;51.052;6.954;2023-10-31T08:34:13;5.97;;;5.67;;
817;SDS011;391;51.052;6.954;2023-10-31T08:36:16;6.00;;;5.67;;
817;SDS011;391;51.052;6.954;2023-10-31T08:38:20;5.13;;;4.73;;
817;SDS011;391;51.052;6.954;2023-10-31T08:40:32;5.97;;;5.60;;
817;SDS011;391;51.052;6.954;2023-10-31T08:42:37;6.27;;;5.87;;
817;SDS011;391;51.052;6.954;2023-10-31T08:44:40;5.80;;;5.40;;
817;SDS011;391;51.052;6.954;2023-10-31T08:46:44;6.10;;;5.70;;
817;SDS011;391;51.052;6.954;2023-10-31T08:48:48;6.50;;;5.67;;
817;SDS011;391;51.052;6.954;2023-10-31T08:50:51;6.20;;;5.80;;
817;SDS011;391;51.052;6.954;2023-10-31T08:52:55;5.33;;;5.03;;
817;SDS011;391;51.052;6.954;2023-10-31T08:55:01;5.73;;;5.33;;
817;SDS011;391;51.052;6.954;2023-10-31T08:57:03;6.17;;;5.77;;
817;SDS011;391;51.052;6.954;2023-10-31T08:59:09;6.27;;;5.87;;
817;SDS011;391;51.052;6.954;2023-10-31T09:01:12;5.70;;;5.40;;
817;SDS011;391;51.052;6.954;2023-10-31T09:03:17;6.70;;;6.20;;
817;SDS011;391;51.052;6.954;2023-10-31T09:05:20;5.67;;;5.27;;
817;SDS011;391;51.052;6.954;2023-10-31T09:07:24;5.93;;;5.30;;
817;SDS011;391;51.052;6.954;2023-10-31T09:09:29;5.30;;;4.90;;
817;SDS011;391;51.052;6.954;2023-10-31T09:11:32;5.83;;;5.30;;
817;SDS011;391;51.052;6.954;2023-10-31T09:13:36;5.33;;;4.97;;
817;SDS011;391;51.052;6.954;2023-10-31T09:15:41;5.67;;;5.30;;
817;SDS011;391;51.052;6.954;2023-10-31T09:17:44;6.77;;;6.30;;
817;SDS011;391;51.052;6.954;2023-10-31T09:19:51;6.53;;;6.10;;
817;SDS011;391;51.052;6.954;2023-10-31T09:21:55;7.10;;;6.60;;
817;SDS011;391;51.052;6.954;2023-10-31T09:24:00;6.80;;;6.33;;
817;SDS011;391;51.052;6.954;2023-10-31T09:26:03;6.60;;;6.20;;
817;SDS011;391;51.052;6.954;2023-10-31T09:28:07;6.40;;;6.00;;
817;SDS011;391;51.052;6.954;2023-10-31T09:30:11;6.37;;;5.87;;
817;SDS011;391;51.052;6.954;2023-10-31T09:32:18;7.00;;;6.60;;
817;SDS011;391;51.052;6.954;2023-10-31T09:34:21;6.23;;;5.83;;
817;SDS011;391;51.052;6.954;2023-10-31T09:36:24;5.70;;;5.40;;
817;SDS011;391;51.052;6.954;2023-10-31T09:38:27;5.83;;;5.40;;
817;SDS011;391;51.052;6.954;2023-10-31T09:40:31;5.90;;;5.40;;
817;SDS011;391;51.052;6.954;2023-10-31T09:42:34;5.93;;;5.53;;
817;SDS011;391;51.052;6.954;2023-10-31T09:44:40;6.17;;;5.70;;
817;SDS011;391;51.052;6.954;2023-10-31T09:46:44;7.17;;;6.87;;
817;SDS011;391;51.052;6.954;2023-10-31T09:48:50;5.93;;;5.63;;
817;SDS011;391;51.052;6.954;2023-10-31T09:50:54;7.23;;;6.83;;
817;SDS011;391;51.052;6.954;2023-10-31T09:52:58;7.00;;;6.50;;
817;SDS011;391;51.052;6.954;2023-10-31T09:55:03;6.90;;;6.40;;
817;SDS011;391;51.052;6.954;2023-10-31T09:57:08;6.50;;;6.20;;
817;SDS011;391;51.052;6.954;2023-10-31T09:59:14;6.73;;;5.97;;
817;SDS011;391;51.052;6.954;2023-10-31T10:01:18;6.60;;;6.10;;
817;SDS011;391;51.052;6.954;2023-10-31T10:03:21;6.47;;;5.97;;
817;SDS011;391;51.052;6.954;2023-10-31T10:05:27;6.77;;;6.37;;
817;SDS011;391;51.052;6.954;2023-10-31T10:07:33;6.63;;;6.23;;
817;SDS011;391;51.052;6.954;2023-10-31T10:09:37;6.87;;;6.33;;
817;SDS011;391;51.052;6.954;2023-10-31T10:11:41;6.57;;;6.27;;
817;SDS011;391;51.052;6.954;2023-10-31T10:13:44;7.23;;;6.80;;
817;SDS011;391;51.052;6.954;2023-10-31T10:15:49;6.53;;;6.23;;
817;SDS011;391;51.052;6.954;2023-10-31T10:17:54;6.90;;;6.47;;
817;SDS011;391;51.052;6.954;2023-10-31T10:20:07;6.30;;;5.90;;
817;SDS011;391;51.052;6.954;2023-10-31T10:22:14;6.27;;;5.97;;
817;SDS011;391;51.052;6.954;2023-10-31T10:24:18;6.33;;;5.90;;
817;SDS011;391;51.052;6.954;2023-10-31T10:26:23;5.90;;;5.60;;
817;SDS011;391;51.052;6.954;2023-10-31T10:28:27;5.93;;;5.63;;
817;SDS011;391;51.052;6.954;2023-10-31T10:30:32;7.03;;;6.60;;
817;SDS011;391;51.052;6.954;2023-10-31T10:32:38;6.43;;;6.13;;
817;SDS011;391;51.052;6.954;2023-10-31T10:34:42;6.60;;;6.30;;
817;SDS011;391;51.052;6.954;2023-10-31T10:36:46;6.87;;;6.47;;
817;SDS011;391;51.052;6.954;2023-10-31T10:38:53;6.73;;;6.33;;
817;SDS011;391;51.052;6.954;2023-10-31T10:41:02;7.40;;;6.90;;
817;SDS011;391;51.052;6.954;2023-10-31T10:43:12;6.60;;;6.20;;
817;SDS011;391;51.052;6.954;2023-10-31T10:45:20;6.97;;;6.50;;
817;SDS011;391;51.052;6.954;2023-10-31T10:47:25;7.83;;;7.43;;
817;SDS011;391;51.052;6.954;2023-10-31T10:49:29;7.50;;;7.10;;
817;SDS011;391;51.052;6.954;2023-10-31T10:51:40;8.10;;;7.60;;
817;SDS011;391;51.052;6.954;2023-10-31T10:53:49;8.50;;;8.00;;
817;SDS011;391;51.052;6.954;2023-10-31T10:56:00;7.87;;;7.47;;
817;SDS011;391;51.052;6.954;2023-10-31T10:58:11;8.33;;;7.80;;
817;SDS011;391;51.052;6.954;2023-10-31T11:00:22;8.67;;;8.17;;
817;SDS011;391;51.052;6.954;2023-10-31T11:02:27;8.50;;;8.20;;
817;SDS011;391;51.052;6.954;2023-10-31T11:04:32;9.73;;;9.33;;
817;SDS011;391;51.052;6.954;2023-10-31T11:06:37;9.20;;;8.83;;
817;SDS011;391;51.052;6.954;2023-10-31T11:08:42;9.10;;;8.60;;
817;SDS011;391;51.052;6.954;2023-10-31T11:10:46;9.00;;;8.60;;
817;SDS011;391;51.052;6.954;2023-10-31T11:12:54;8.20;;;7.90;;
817;SDS011;391;51.052;6.954;2023-10-31T11:14:59;7.50;;;7.20;;
817;SDS011;391;51.052;6.954;2023-10-31T11:17:06;7.40;;;6.90;;
817;SDS011;391;51.052;6.954;2023-10-31T11:19:17;7.17;;;6.87;;
817;SDS011;391;51.052;6.954;2023-10-31T11:21:22;7.13;;;6.87;;
817;SDS011;391;51.052;6.954;2023-10-31T11:23:26;7.17;;;6.80;;
817;SDS011;391;51.052;6.954;2023-10-31T11:25:31;7.40;;;7.00;;
817;SDS011;391;51.052;6.954;2023-10-31T11:27:34;7.27;;;6.90;;
817;SDS011;391;51.052;6.954;2023-10-31T11:29:41;7.20;;;6.90;;
817;SDS011;391;51.052;6.954;2023-10-31T11:31:50;8.00;;;7.70;;
817;SDS011;391;51.052;6.954;2023-10-31T11:33:53;9.10;;;8.30;;
817;SDS011;391;51.052;6.954;2023-10-31T11:36:00;7.47;;;7.17;;
817;SDS011;391;51.052;6.954;2023-10-31T11:38:05;7.93;;;7.53;;
817;SDS011;391;51.052;6.954;2023-10-31T11:40:15;7.87;;;7.47;;
817;SDS011;391;51.052;6.954;2023-10-31T11:42:20;7.40;;;7.20;;
817;SDS011;391;51.052;6.954;2023-10-31T11:44:25;8.00;;;7.70;;
817;SDS011;391;51.052;6.954;2023-10-31T11:46:30;8.33;;;7.93;;
817;SDS011;391;51.052;6.954;2023-10-31T11:48:44;7.87;;;7.47;;
817;SDS011;391;51.052;6.954;2023-10-31T11:50:50;7.20;;;7.00;;
817;SDS011;391;51.052;6.954;2023-10-31T11:53:02;8.50;;;7.73;;
817;SDS011;391;51.052;6.954;2023-10-31T11:55:08;7.50;;;6.90;;
817;SDS011;391;51.052;6.954;2023-10-31T11:57:25;7.90;;;7.60;;
817;SDS011;391;51.052;6.954;2023-10-31T11:59:35;8.57;;;8.10;;
817;SDS011;391;51.052;6.954;2023-10-31T12:01:46;8.70;;;8.30;;
817;SDS011;391;51.052;6.954;2023-10-31T12:03:50;8.70;;;8.30;;
817;SDS011;391;51.052;6.954;2023-10-31T12:05:54;9.07;;;8.67;;
817;SDS011;391;51.052;6.954;2023-10-31T12:07:57;8.77;;;8.30;;
817;SDS011;391;51.052;6.954;2023-10-31T12:10:01;9.13;;;8.73;;
817;SDS011;391;51.052;6.954;2023-10-31T12:12:05;10.23;;;9.90;;
817;SDS011;391;51.052;6.954;2023-10-31T12:14:09;9.17;;;8.77;;
817;SDS011;391;51.052;6.954;2023-10-31T12:16:15;9.23;;;8.80;;
817;SDS011;391;51.052;6.954;2023-10-31T12:18:20;9.10;;;8.70;;
817;SDS011;391;51.052;6.954;2023-10-31T12:20:24;9.47;;;8.97;;
817;SDS011;391;51.052;6.954;2023-10-31T12:22:28;9.70;;;9.13;;
817;SDS011;391;51.052;6.954;2023-10-31T12:24:31;9.73;;;9.10;;
817;SDS011;391;51.052;6.954;2023-10-31T12:26:35;9.53;;;9.10;;
817;SDS011;391;51.052;6.954;2023-10-31T12:28:39;9.50;;;9.20;;
817;SDS011;391;51.052;6.954;2023-10-31T12:30:44;10.07;;;9.67;;
817;SDS011;391;51.052;6.954;2023-10-31T12:32:53;9.90;;;9.43;;
817;SDS011;391;51.052;6.954;2023-10-31T12:34:59;9.20;;;8.60;;
817;SDS011;391;51.052;6.954;2023-10-31T12:37:03;9.23;;;8.90;;
817;SDS011;391;51.052;6.954;2023-10-31T12:39:07;10.93;;;10.43;;
817;SDS011;391;51.052;6.954;2023-10-31T12:41:13;9.27;;;8.97;;
817;SDS011;391;51.052;6.954;2023-10-31T12:43:20;8.90;;;8.50;;
817;SDS011;391;51.052;6.954;2023-10-31T12:45:24;8.93;;;8.63;;
817;SDS011;391;51.052;6.954;2023-10-31T12:47:29;9.83;;;9.10;;
817;SDS011;391;51.052;6.954;2023-10-31T12:49:39;8.57;;;8.27;;
817;SDS011;391;51.052;6.954;2023-10-31T12:51:56;8.27;;;7.87;;
817;SDS011;391;51.052;6.954;2023-10-31T12:54:01;10.17;;;9.63;;
817;SDS011;391;51.052;6.954;2023-10-31T12:56:06;9.70;;;9.30;;
817;SDS011;391;51.052;6.954;2023-10-31T12:58:11;10.30;;;9.80;;
817;SDS011;391;51.052;6.954;2023-10-31T13:00:29;11.23;;;10.73;;
817;SDS011;391;51.052;6.954;2023-10-31T13:02:33;10.80;;;10.40;;
817;SDS011;391;51.052;6.954;2023-10-31T13:04:39;11.27;;;10.70;;
817;SDS011;391;51.052;6.954;2023-10-31T13:06:44;10.90;;;10.40;;
817;SDS011;391;51.052;6.954;2023-10-31T13:08:59;11.20;;;10.73;;
817;SDS011;391;51.052;6.954;2023-10-31T13:11:03;11.27;;;10.67;;
817;SDS011;391;51.052;6.954;2023-10-31T13:13:06;11.20;;;10.90;;
817;SDS011;391;51.052;6.954;2023-10-31T13:15:10;11.33;;;10.80;;
817;SDS011;391;51.052;6.954;2023-10-31T13:17:14;12.33;;;11.73;;
817;SDS011;391;51.052;6.954;2023-10-31T13:19:17;12.17;;;11.57;;